Time;durP1;ratioP1;P1;durP2;ratioP2;P2;SDS_P1;SDS_P2;PMS_P1;PMS_P2;Temp;Humidity;BMP_temperature;BMP_pressure;BME280_temperature;BME280_humidity;BME280_pressure;Samples;Min_cycle;Max_cycle;Signal;HPM_P1;HPM_P2
2022/10/12 00:00:58;;;;;;;17.65;7.78;;;;;;;11.61;100.00;93181.00;5050709;28;20104;-77
2022/10/12 00:03:24;;;;;;;17.70;7.32;;;;;;;11.58;100.00;93178.94;5051672;28;20536;-78
2022/10/12 00:06:05;;;;;;;12.30;7.63;;;;;;;11.59;100.00;93178.63;5033762;28;20581;-77
2022/10/12 00:08:31;;;;;;;12.88;7.63;;;;;;;11.60;100.00;93184.69;5051839;28;20033;-77
2022/10/12 00:10:57;;;;;;;12.73;7.70;;;;;;;11.58;100.00;93181.56;5051887;28;20024;-78
2022/10/12 00:13:23;;;;;;;17.38;8.30;;;;;;;11.59;100.00;93183.09;5051681;28;20068;-77
2022/10/12 00:15:48;;;;;;;18.85;8.20;;;;;;;11.60;100.00;93179.44;5051687;28;20051;-77
2022/10/12 00:18:14;;;;;;;19.85;8.07;;;;;;;11.58;100.00;93178.94;5051549;28;20041;-77
2022/10/12 00:20:39;;;;;;;17.58;9.40;;;;;;;11.59;100.00;93177.88;5052805;28;20021;-77
2022/10/12 00:23:06;;;;;;;15.98;8.48;;;;;;;11.58;100.00;93179.72;5037718;28;20183;-77
2022/10/12 00:25:40;;;;;;;19.50;8.50;;;;;;;11.59;100.00;93172.63;5055300;28;20071;-77
2022/10/12 00:28:06;;;;;;;13.02;7.78;;;;;;;11.58;100.00;93171.06;5055579;28;20041;-78
2022/10/12 00:30:33;;;;;;;18.70;8.50;;;;;;;11.56;100.00;93173.19;5055313;28;20390;-77
2022/10/12 00:32:58;;;;;;;14.90;8.02;;;;;;;11.55;100.00;93176.84;5054900;28;20037;-77
2022/10/12 00:35:26;;;;;;;21.20;8.27;;;;;;;11.53;100.00;93171.91;5055441;28;20035;-78
2022/10/12 00:37:53;;;;;;;19.25;8.63;;;;;;;11.53;100.00;93173.72;5055199;28;20047;-77
2022/10/12 00:40:19;;;;;;;16.92;8.50;;;;;;;11.53;100.00;93168.47;5055368;28;20407;-77
2022/10/12 00:42:47;;;;;;;21.35;8.95;;;;;;;11.52;100.00;93172.94;5054902;28;20152;-77
2022/10/12 00:45:14;;;;;;;17.13;8.57;;;;;;;11.52;100.00;93180.03;5055136;28;20136;-77
2022/10/12 00:47:49;;;;;;;14.18;8.63;;;;;;;11.51;100.00;93167.97;5055054;28;20041;-77
2022/10/12 00:50:32;;;;;;;16.23;8.45;;;;;;;11.51;100.00;93170.59;5054683;28;20037;-77
2022/10/12 00:53:15;;;;;;;16.88;9.27;;;;;;;11.52;100.00;93166.91;5055428;28;20044;-77
2022/10/12 00:55:48;;;;;;;17.55;9.77;;;;;;;11.53;100.00;93173.72;5053678;28;20682;-77
2022/10/12 00:58:15;;;;;;;20.90;8.38;;;;;;;11.52;100.00;93167.69;5053776;28;20037;-77
2022/10/12 01:00:41;;;;;;;16.02;8.57;;;;;;;11.53;100.00;93168.47;5054465;28;20060;-78
2022/10/12 01:03:09;;;;;;;18.73;8.98;;;;;;;11.51;100.00;93165.38;5054514;28;20091;-77
2022/10/12 01:05:38;;;;;;;17.00;9.30;;;;;;;11.54;100.00;93165.56;5053835;28;20572;-77
2022/10/12 01:08:04;;;;;;;19.40;9.35;;;;;;;11.56;100.00;93162.69;5054518;28;20025;-77
2022/10/12 01:10:29;;;;;;;17.63;9.07;;;;;;;11.56;100.00;93167.94;5054536;28;20159;-77
2022/10/12 01:12:55;;;;;;;19.35;7.85;;;;;;;11.56;100.00;93173.97;5053697;28;20056;-77
2022/10/12 01:15:26;;;;;;;18.52;8.65;;;;;;;11.57;100.00;93162.44;5054528;28;20112;-77
2022/10/12 01:18:44;;;;;;;13.82;8.80;;;;;;;11.58;100.00;93173.69;5054314;28;20044;-77
2022/10/12 01:21:31;;;;;;;19.25;9.48;;;;;;;11.57;100.00;93156.38;5053230;28;20033;-77
2022/10/12 01:24:32;;;;;;;16.38;8.77;;;;;;;11.57;100.00;93164.25;5054366;28;20405;-78
2022/10/12 01:27:25;;;;;;;15.18;8.27;;;;;;;11.52;100.00;93156.44;5054127;28;20171;-77
2022/10/12 01:30:00;;;;;;;14.38;8.07;;;;;;;11.54;100.00;93164.81;5054407;28;20108;-77
2022/10/12 01:32:31;;;;;;;16.52;6.90;;;;;;;11.49;100.00;93163.00;5053761;28;20033;-77
2022/10/12 01:35:39;;;;;;;16.20;8.10;;;;;;;11.42;100.00;93160.69;5054173;28;20068;-77
2022/10/12 01:38:17;;;;;;;12.90;7.70;;;;;;;11.41;100.00;93159.13;5053465;28;20295;-77
2022/10/12 01:41:02;;;;;;;18.20;8.38;;;;;;;11.38;100.00;93154.44;5052984;28;20467;-77
2022/10/12 01:43:36;;;;;;;23.05;8.95;;;;;;;11.33;100.00;93149.25;5036082;28;20403;-77
2022/10/12 01:46:22;;;;;;;15.77;7.82;;;;;;;11.30;100.00;93149.78;5053481;28;20064;-77
2022/10/12 01:48:52;;;;;;;17.92;8.38;;;;;;;11.27;100.00;93147.72;5048723;28;20144;-77
2022/10/12 01:51:32;;;;;;;16.20;8.00;;;;;;;11.23;100.00;93147.47;5053700;28;20040;-77
2022/10/12 01:54:23;;;;;;;18.98;8.60;;;;;;;11.18;100.00;93144.88;5053388;28;20033;-77
2022/10/12 01:57:30;;;;;;;13.82;7.72;;;;;;;11.13;100.00;93141.53;5053126;28;20040;-77
2022/10/12 02:00:10;;;;;;;15.98;8.52;;;;;;;11.09;100.00;93145.75;5053149;28;20052;-77
2022/10/12 02:03:00;;;;;;;16.67;8.65;;;;;;;11.06;100.00;93149.69;5053300;28;20371;-78
2022/10/12 02:05:38;;;;;;;22.08;9.48;;;;;;;11.03;100.00;93145.78;5053433;28;20065;-77
2022/10/12 02:08:27;;;;;;;17.45;9.25;;;;;;;11.01;100.00;93144.47;5053686;28;20033;-77
2022/10/12 02:11:02;;;;;;;19.65;8.60;;;;;;;10.98;100.00;93143.19;5053553;28;20167;-77
2022/10/12 02:13:33;;;;;;;15.68;8.80;;;;;;;10.98;100.00;93139.78;5053032;28;20036;-77
2022/10/12 02:16:05;;;;;;;18.10;8.65;;;;;;;10.95;100.00;93148.97;5053207;28;20044;-77
2022/10/12 02:18:33;;;;;;;22.38;9.50;;;;;;;10.94;100.00;93142.19;5055048;28;20513;-77
2022/10/12 02:20:59;;;;;;;17.25;8.68;;;;;;;10.92;100.00;93139.03;5055495;28;20029;-76
2022/10/12 02:27:20;;;;;;;18.30;9.13;;;;;;;10.88;100.00;93145.88;5054922;28;20072;-77
2022/10/12 02:30:06;;;;;;;22.55;9.48;;;;;;;10.90;100.00;93141.16;5053416;28;20040;-77
2022/10/12 02:32:38;;;;;;;17.30;9.20;;;;;;;10.91;100.00;93139.31;5054542;28;20065;-77
2022/10/12 02:35:14;;;;;;;19.05;9.60;;;;;;;10.90;100.00;93133.28;5053534;28;20036;-77
2022/10/12 02:45:43;;;;;;;15.82;7.93;;;;;;;10.88;100.00;93138.03;5054247;28;20520;-77
2022/10/12 02:48:14;;;;;;;16.02;9.02;;;;;;;10.87;100.00;93135.66;5053499;28;20567;-78
2022/10/12 02:51:01;;;;;;;16.25;8.88;;;;;;;10.84;100.00;93134.38;5054647;28;20037;-77
2022/10/12 02:53:29;;;;;;;17.35;8.88;;;;;;;10.81;100.00;93132.31;5054930;28;20036;-76
2022/10/12 02:59:49;;;;;;;19.77;9.55;;;;;;;10.78;100.00;93138.06;5054546;28;20112;-77
2022/10/12 03:06:09;;;;;;;18.10;10.07;;;;;;;10.74;100.00;93131.81;5054588;28;20048;-77
2022/10/12 03:12:29;;;;;;;19.83;10.55;;;;;;;10.70;100.00;93126.34;5054684;28;20040;-77
2022/10/12 03:19:29;;;;;;;14.82;8.48;;;;;;;10.64;100.00;93122.19;5053822;28;20448;-77
2022/10/12 03:21:54;;;;;;;16.92;8.07;;;;;;;10.61;100.00;93128.75;5053793;28;20029;-76
2022/10/12 03:24:20;;;;;;;19.85;7.85;;;;;;;10.56;100.00;93120.13;5052107;28;20035;-77
2022/10/12 03:26:45;;;;;;;14.45;7.05;;;;;;;10.60;100.00;93124.56;5052354;28;20041;-77
2022/10/12 03:29:11;;;;;;;16.02;6.97;;;;;;;10.60;100.00;93115.91;5053397;28;20090;-77
2022/10/12 03:35:31;;;;;;;19.05;7.97;;;;;;;10.63;100.00;93126.63;5054025;28;20039;-77
2022/10/12 03:37:58;;;;;;;15.18;8.50;;;;;;;10.63;100.00;93124.03;5053928;28;20045;-77
2022/10/12 03:40:23;;;;;;;14.40;7.28;;;;;;;10.63;100.00;93125.84;5054004;28;20075;-77
2022/10/12 03:42:49;;;;;;;22.65;7.88;;;;;;;10.62;100.00;93122.44;5051193;28;20053;-77
2022/10/12 03:45:14;;;;;;;14.70;7.45;;;;;;;10.62;100.00;93126.91;5052407;28;20077;-77
2022/10/12 03:47:40;;;;;;;17.42;7.68;;;;;;;10.60;100.00;93132.41;5052480;28;20556;-77
2022/10/12 03:50:06;;;;;;;17.92;7.40;;;;;;;10.58;100.00;93131.91;5052689;28;20056;-77
2022/10/12 03:52:50;;;;;;;15.27;8.27;;;;;;;10.56;100.00;93131.38;5052323;28;20087;-77
2022/10/12 03:55:16;;;;;;;13.38;8.05;;;;;;;10.53;100.00;93128.50;5053386;28;20041;-77
2022/10/12 03:57:41;;;;;;;17.02;7.40;;;;;;;10.51;100.00;93128.78;5052300;28;20033;-77
2022/10/12 04:03:28;;;;;;;16.88;8.10;;;;;;;10.45;100.00;93132.50;5053810;28;20094;-77
2022/10/12 04:05:56;;;;;;;21.10;8.82;;;;;;;10.42;100.00;93130.41;5052456;28;20033;-77
2022/10/12 04:11:56;;;;;;;19.83;8.02;;;;;;;10.39;100.00;93136.94;5053648;28;20048;-77
2022/10/12 04:14:22;;;;;;;18.58;7.90;;;;;;;10.36;100.00;93132.25;5053735;28;20034;-77
2022/10/12 04:17:08;;;;;;;22.30;9.38;;;;;;;10.35;100.00;93133.31;5053806;28;20029;-77
2022/10/12 04:19:34;;;;;;;19.15;9.32;;;;;;;10.35;100.00;93132.53;5053373;28;20064;-77
2022/10/12 04:21:59;;;;;;;17.90;8.88;;;;;;;10.36;100.00;93136.72;5052397;28;20076;-77
2022/10/12 04:24:25;;;;;;;19.15;9.10;;;;;;;10.36;100.00;93132.25;5052888;28;20060;-77
2022/10/12 04:26:50;;;;;;;18.67;8.88;;;;;;;10.36;100.00;93139.34;5050433;28;20552;-77
2022/10/12 04:29:16;;;;;;;18.83;9.75;;;;;;;10.36;100.00;93142.72;5051969;28;20106;-77
2022/10/12 04:31:41;;;;;;;16.75;9.23;;;;;;;10.37;100.00;93140.88;5064489;28;20469;-78
2022/10/12 04:34:10;;;;;;;16.92;9.23;;;;;;;10.34;100.00;93133.59;5074414;28;20037;-79
2022/10/12 04:36:36;;;;;;;19.40;9.73;;;;;;;10.37;100.00;93143.50;5066147;28;20032;-81
2022/10/12 04:39:03;;;;;;;16.52;9.43;;;;;;;10.36;100.00;93134.09;5057364;28;20368;-79
2022/10/12 04:41:29;;;;;;;18.70;9.40;;;;;;;10.40;100.00;93137.72;5057614;28;20068;-79
2022/10/12 04:43:55;;;;;;;17.48;9.02;;;;;;;10.40;100.00;93137.72;5056392;28;20152;-79
2022/10/12 04:46:21;;;;;;;19.23;9.73;;;;;;;10.40;100.00;93132.50;5059629;28;20032;-79
2022/10/12 04:48:46;;;;;;;22.73;8.82;;;;;;;10.40;100.00;93137.72;5051938;28;20478;-79
2022/10/12 04:51:12;;;;;;;18.40;9.15;;;;;;;10.41;100.00;93139.31;5055718;28;20083;-79
2022/10/12 04:54:17;;;;;;;14.85;8.30;;;;;;;10.45;100.00;93139.53;5056666;28;20021;-79
2022/10/12 04:56:42;;;;;;;14.15;8.52;;;;;;;10.46;100.00;93146.34;5066614;28;20037;-78
2022/10/12 05:02:41;;;;;;;;;;;;;;;10.47;100.00;93142.66;5064591;28;20485;-78
2022/10/12 05:05:26;;;;;;;18.17;7.82;;;;;;;10.45;100.00;93140.34;5073199;28;19955;-80
2022/10/12 05:07:51;;;;;;;18.83;7.93;;;;;;;10.46;100.00;93141.13;5057491;28;20040;-79
2022/10/12 05:10:17;;;;;;;15.50;8.45;;;;;;;10.45;100.00;93140.34;5073433;28;20096;-79
2022/10/12 05:12:42;;;;;;;15.55;8.38;;;;;;;10.46;100.00;93144.50;5076311;28;20111;-80
2022/10/12 05:15:09;;;;;;;19.30;9.45;;;;;;;10.43;100.00;93147.69;5060974;28;20118;-79
2022/10/12 05:17:37;;;;;;;18.45;9.23;;;;;;;10.40;100.00;93149.00;5060325;28;20136;-79
2022/10/12 05:20:03;;;;;;;23.55;8.90;;;;;;;10.40;100.00;93156.03;5074405;28;20039;-79
2022/10/12 05:22:30;;;;;;;17.23;8.07;;;;;;;10.40;100.00;93148.19;5063752;28;20048;-80
2022/10/12 05:24:56;;;;;;;15.57;8.25;;;;;;;10.40;100.00;93153.44;5063876;28;20124;-79
2022/10/12 05:27:21;;;;;;;14.38;8.07;;;;;;;10.39;100.00;93146.66;5059881;28;20455;-79
2022/10/12 05:29:47;;;;;;;14.80;8.10;;;;;;;10.37;100.00;93148.75;5069194;28;20049;-79
2022/10/12 05:32:12;;;;;;;14.50;6.95;;;;;;;10.38;100.00;93145.88;5069108;28;20043;-80
2022/10/12 05:41:54;;;;;;;16.10;7.50;;;;;;;10.42;100.00;93159.19;5061962;28;20087;-79
2022/10/12 05:44:20;;;;;;;14.35;7.55;;;;;;;10.45;100.00;93156.03;5059785;28;20044;-79
2022/10/12 05:46:46;;;;;;;14.32;7.55;;;;;;;10.45;100.00;93158.66;5061021;28;20045;-79
2022/10/12 05:52:34;;;;;;;10.80;6.70;;;;;;;10.65;100.00;93162.22;5061377;28;20059;-80
2022/10/12 05:55:00;;;;;;;16.75;8.02;;;;;;;10.76;100.00;93158.50;5060483;28;20088;-79
2022/10/12 05:57:44;;;;;;;14.13;7.35;;;;;;;10.89;100.00;93168.38;5062389;28;20056;-80
2022/10/12 06:00:10;;;;;;;13.80;7.35;;;;;;;11.04;100.00;93176.16;5062491;28;20028;-80
2022/10/12 06:02:36;;;;;;;12.27;7.50;;;;;;;11.29;100.00;93169.19;5062722;28;20033;-79
2022/10/12 06:08:58;;;;;;;16.02;7.45;;;;;;;11.54;100.00;93175.28;5061615;28;20082;-79
2022/10/12 06:11:24;;;;;;;19.52;7.82;;;;;;;11.63;100.00;93178.88;5060311;28;20048;-79
2022/10/12 06:14:08;;;;;;;18.45;7.25;;;;;;;11.72;100.00;93179.84;5068119;28;20393;-79
2022/10/12 06:16:34;;;;;;;21.98;8.45;;;;;;;11.91;100.00;93174.75;5063572;28;20396;-78
2022/10/12 06:19:00;;;;;;;20.02;8.18;;;;;;;12.14;100.00;93175.06;5056647;28;20078;-78
2022/10/12 06:21:25;;;;;;;23.30;7.60;;;;;;;12.26;100.00;93170.97;5059154;28;20086;-78
2022/10/12 06:23:51;;;;;;;16.08;7.30;;;;;;;12.25;100.00;93177.28;5057413;28;20503;-78
2022/10/12 06:26:16;;;;;;;15.70;7.68;;;;;;;12.26;100.00;93178.06;5059559;28;20037;-79
2022/10/12 06:28:42;;;;;;;15.55;7.13;;;;;;;12.29;100.00;93186.16;5060213;28;20036;-79
2022/10/12 06:31:09;;;;;;;14.68;7.03;;;;;;;12.34;100.00;93189.78;5059265;28;20461;-79
2022/10/12 06:33:35;;;;;;;16.48;6.93;;;;;;;12.40;100.00;93186.03;5059961;28;20045;-79
2022/10/12 06:36:01;;;;;;;19.52;8.15;;;;;;;12.47;100.00;93186.47;5057906;28;20111;-79
2022/10/12 06:38:26;;;;;;;19.80;7.38;;;;;;;12.50;100.00;93191.97;5057692;28;20067;-79
2022/10/12 06:40:54;;;;;;;15.55;7.22;;;;;;;12.62;100.00;93194.19;5057874;28;20051;-78
2022/10/12 06:43:21;;;;;;;14.57;7.78;;;;;;;12.65;100.00;93201.53;5058318;28;20056;-79
2022/10/12 06:45:47;;;;;;;18.05;7.38;;;;;;;12.69;100.00;93196.47;5057724;28;20415;-79
2022/10/12 06:48:13;;;;;;;17.20;8.38;;;;;;;12.68;100.00;93190.44;5058437;28;20036;-79
2022/10/12 06:50:38;;;;;;;19.67;7.93;;;;;;;12.74;100.00;93195.63;5057057;28;20037;-78
2022/10/12 06:53:04;;;;;;;17.23;8.60;;;;;;;12.78;100.00;93197.41;5059800;28;20120;-79
2022/10/12 06:55:29;;;;;;;21.35;8.20;;;;;;;12.81;100.00;93196.06;5058970;28;20037;-78
2022/10/12 06:57:55;;;;;;;16.33;7.38;;;;;;;12.84;100.00;93200.78;5058126;28;20041;-79
2022/10/12 07:00:21;;;;;;;17.63;7.18;;;;;;;12.85;100.00;93205.72;5059166;28;20029;-79
2022/10/12 07:02:50;;;;;;;11.93;6.82;;;;;;;12.90;100.00;93199.63;5059560;28;20097;-79
2022/10/12 07:05:16;;;;;;;14.57;6.90;;;;;;;12.95;100.00;93201.41;5059111;28;20074;-79
2022/10/12 07:07:42;;;;;;;13.15;7.07;;;;;;;13.02;100.00;93205.25;5056631;28;20033;-79
2022/10/12 07:10:08;;;;;;;17.77;7.88;;;;;;;13.10;100.00;93204.63;5057152;28;20041;-78
2022/10/12 07:12:35;;;;;;;24.67;7.97;;;;;;;13.20;100.00;93208.97;5058335;28;20045;-79
2022/10/12 07:15:01;;;;;;;28.20;7.75;;;;;;;13.30;100.00;93210.69;5058032;28;20394;-79
2022/10/12 07:17:27;;;;;;;23.05;7.95;;;;;;;13.49;100.00;93216.72;5074304;28;20036;-79
2022/10/12 07:19:52;;;;;;;23.17;7.80;;;;;;;13.63;100.00;93216.00;5077100;28;20466;-79
2022/10/12 07:22:18;;;;;;;23.73;7.95;;;;;;;13.75;100.00;93216.31;5077473;28;20103;-79
2022/10/12 07:24:43;;;;;;;24.38;7.88;;;;;;;13.83;100.00;93214.91;5077804;28;20062;-78
2022/10/12 07:27:10;;;;;;;25.45;8.45;;;;;;;13.90;100.00;93213.47;5077766;28;20045;-79
2022/10/12 07:29:37;;;;;;;29.75;10.20;;;;;;;13.99;100.00;93212.81;5076808;28;20051;-79
2022/10/12 07:32:03;;;;;;;23.30;8.85;;;;;;;14.03;100.00;93219.06;5077086;28;20047;-78
2022/10/12 07:34:29;;;;;;;13.80;6.63;;;;;;;14.11;100.00;93221.00;5077848;28;20036;-78
2022/10/12 07:36:55;;;;;;;13.32;6.32;;;;;;;14.10;93.76;93214.19;5076154;28;20028;-78
2022/10/12 07:39:21;;;;;;;12.55;6.55;;;;;;;14.12;95.16;93214.69;5077641;28;20554;-78
2022/10/12 07:41:48;;;;;;;14.55;5.72;;;;;;;14.18;96.98;93224.03;5078455;28;20092;-78
2022/10/12 07:44:14;;;;;;;19.33;6.32;;;;;;;14.32;96.02;93229.31;5077696;28;20379;-78
2022/10/12 07:46:40;;;;;;;12.43;5.80;;;;;;;14.51;96.66;93224.00;5076849;28;20432;-78
2022/10/12 07:49:06;;;;;;;14.40;7.07;;;;;;;14.67;96.49;93225.28;5077502;28;20036;-79
2022/10/12 07:51:32;;;;;;;16.85;7.10;;;;;;;14.82;97.22;93228.72;5078227;28;20028;-78
2022/10/12 07:53:59;;;;;;;14.07;7.05;;;;;;;14.99;96.70;93221.78;5077492;28;20521;-79
2022/10/12 07:56:25;;;;;;;14.13;6.97;;;;;;;15.20;93.44;93231.91;5076619;28;20029;-78
2022/10/12 07:58:57;;;;;;;12.93;6.20;;;;;;;15.29;90.10;93226.69;5075838;28;20036;-78
2022/10/12 08:01:26;;;;;;;14.77;6.47;;;;;;;15.33;89.28;93228.47;5077238;28;20036;-78
2022/10/12 08:03:52;;;;;;;15.73;6.45;;;;;;;15.61;89.97;93229.13;5076859;28;20036;-78
2022/10/12 08:06:21;;;;;;;21.77;6.80;;;;;;;16.02;84.74;93209.72;5077269;28;20045;-78
2022/10/12 08:08:47;;;;;;;12.55;6.20;;;;;;;16.33;85.79;93214.25;5077256;28;20071;-78
2022/10/12 08:11:13;;;;;;;10.95;5.25;;;;;;;16.53;83.57;93209.53;5077240;28;20024;-78
2022/10/12 08:13:39;;;;;;;12.88;5.80;;;;;;;16.40;83.88;93217.22;5076723;28;20036;-78
2022/10/12 08:16:09;;;;;;;11.30;5.78;;;;;;;16.45;83.01;93211.81;5076784;28;20051;-78
2022/10/12 08:18:34;;;;;;;9.13;5.68;;;;;;;16.33;85.27;93210.84;5076440;28;20020;-78
2022/10/12 08:21:03;;;;;;;12.93;6.30;;;;;;;16.31;81.99;93213.00;5075660;28;20075;-78
2022/10/12 08:23:28;;;;;;;14.32;6.32;;;;;;;16.36;83.80;93208.34;5074777;28;20040;-78
2022/10/12 08:25:56;;;;;;;10.95;5.20;;;;;;;16.75;80.63;93212.09;5058489;28;20101;-78
2022/10/12 08:28:23;;;;;;;11.48;5.80;;;;;;;16.96;79.89;93195.69;5076170;28;20032;-78
2022/10/12 08:30:48;;;;;;;8.60;5.07;;;;;;;17.17;79.73;93207.22;5076660;28;20078;-79
2022/10/12 08:33:15;;;;;;;16.52;5.82;;;;;;;17.32;79.23;93203.34;5076089;28;20029;-78
2022/10/12 08:35:41;;;;;;;10.90;5.78;;;;;;;17.64;76.42;93210.06;5076228;28;20040;-78
2022/10/12 08:38:10;;;;;;;14.27;5.35;;;;;;;18.28;73.37;93211.22;5076465;28;20104;-78
2022/10/12 08:40:46;;;;;;;11.60;5.47;;;;;;;18.23;70.87;93208.75;5075929;28;20031;-78
2022/10/12 08:43:37;;;;;;;14.25;5.90;;;;;;;17.71;72.96;93209.59;5077692;28;20109;-78
2022/10/12 08:46:03;;;;;;;11.93;6.60;;;;;;;17.99;72.03;93204.78;5079635;28;20072;-78
2022/10/12 08:48:46;;;;;;;15.02;6.18;;;;;;;18.29;72.61;93204.84;5080302;28;20482;-79
2022/10/12 08:51:18;;;;;;;16.83;8.50;;;;;;;18.15;69.22;93209.53;5079614;28;20032;-78
2022/10/12 08:54:13;;;;;;;13.40;7.68;;;;;;;18.51;65.84;93204.63;5078952;28;20140;-78
2022/10/12 08:56:40;;;;;;;17.13;6.85;;;;;;;18.61;71.47;93208.03;5069633;28;20040;-79
2022/10/12 08:59:12;;;;;;;17.63;8.25;;;;;;;18.70;67.79;93211.41;5079332;28;20028;-78
2022/10/12 09:02:14;;;;;;;12.98;5.82;;;;;;;18.54;69.68;93203.22;5079714;28;20036;-79
2022/10/12 09:05:06;;;;;;;11.23;6.05;;;;;;;18.40;72.08;93208.72;5076556;28;20391;-78
2022/10/12 09:07:45;;;;;;;13.18;7.28;;;;;;;18.06;68.82;93202.41;5080629;28;20029;-78
2022/10/12 09:10:42;;;;;;;15.18;7.65;;;;;;;17.90;67.49;93201.34;5078648;28;20037;-78
2022/10/12 09:13:33;;;;;;;14.55;7.00;;;;;;;18.08;67.23;93197.59;5080014;28;20029;-78
2022/10/12 09:16:24;;;;;;;17.95;9.38;;;;;;;18.05;68.82;93197.41;5079321;28;20060;-78
2022/10/12 09:19:06;;;;;;;24.73;12.25;;;;;;;18.14;68.31;93197.41;5078947;28;20044;-79
2022/10/12 09:21:33;;;;;;;20.90;11.20;;;;;;;18.34;69.00;93199.38;5079805;28;20036;-79
2022/10/12 09:23:59;;;;;;;15.50;8.18;;;;;;;18.68;69.33;93195.81;5074112;28;20037;-79
2022/10/12 09:26:38;;;;;;;19.20;8.23;;;;;;;18.85;69.06;93194.22;5059440;28;20401;-79
2022/10/12 09:29:26;;;;;;;16.73;8.60;;;;;;;19.27;67.52;93192.41;5059676;28;20487;-79
2022/10/12 09:32:07;;;;;;;19.98;9.60;;;;;;;19.66;66.94;93193.06;5058563;28;20033;-78
2022/10/12 09:34:34;;;;;;;15.65;6.80;;;;;;;19.68;68.96;93195.38;5064592;28;20028;-78
2022/10/12 09:37:04;;;;;;;18.92;10.77;;;;;;;19.90;66.26;93202.25;5080168;28;20380;-78
2022/10/12 09:39:32;;;;;;;13.95;7.47;;;;;;;19.32;68.09;93202.84;5080130;28;20076;-79
2022/10/12 09:41:58;;;;;;;19.17;7.72;;;;;;;19.18;69.10;93194.31;5079375;28;20055;-79
2022/10/12 09:44:29;;;;;;;22.45;9.20;;;;;;;19.25;68.09;93191.16;5079085;28;20052;-78
2022/10/12 09:46:58;;;;;;;26.45;8.25;;;;;;;19.18;67.77;93198.84;5078327;28;20079;-78
2022/10/12 09:49:46;;;;;;;15.07;8.38;;;;;;;18.91;69.32;93191.06;5079338;28;20032;-78
2022/10/12 09:52:14;;;;;;;16.88;9.60;;;;;;;19.10;67.53;93197.81;5078726;28;20029;-78
2022/10/12 09:54:46;;;;;;;23.15;13.40;;;;;;;19.09;65.66;93196.25;5078628;28;20098;-78
2022/10/12 09:57:55;;;;;;;20.90;11.38;;;;;;;19.13;64.67;93197.94;5079285;28;20044;-78
2022/10/12 10:00:22;;;;;;;16.95;7.93;;;;;;;19.30;68.50;93191.75;5056527;28;20041;-78
2022/10/12 10:02:50;;;;;;;26.85;12.45;;;;;;;19.00;65.55;93195.53;5054954;28;20028;-79
2022/10/12 10:05:42;;;;;;;17.98;8.60;;;;;;;18.67;67.98;93191.63;5067935;28;20115;-78
2022/10/12 10:08:21;;;;;;;20.77;10.00;;;;;;;18.45;70.70;93200.59;5058530;28;20490;-78
2022/10/12 10:10:58;;;;;;;12.38;6.28;;;;;;;18.33;74.89;93197.84;5059348;28;20144;-78
2022/10/12 10:13:32;;;;;;;19.52;8.60;;;;;;;18.16;75.74;93195.22;5058961;28;20064;-78
2022/10/12 10:16:04;;;;;;;17.77;8.52;;;;;;;18.33;74.52;93204.97;5058879;28;20043;-79
2022/10/12 10:18:34;;;;;;;15.68;7.47;;;;;;;18.22;75.21;93205.34;5069151;28;20044;-78
2022/10/12 10:21:02;;;;;;;19.27;9.85;;;;;;;18.47;72.95;93210.88;5057182;28;20055;-79
2022/10/12 10:23:38;;;;;;;22.73;11.25;;;;;;;18.39;73.00;93201.84;5058065;28;20029;-78
2022/10/12 10:26:08;;;;;;;18.25;9.45;;;;;;;18.37;72.70;93209.34;5058558;28;20044;-78
2022/10/12 10:28:39;;;;;;;25.35;13.55;;;;;;;18.61;69.99;93202.72;5058116;28;20040;-78
2022/10/12 10:31:11;;;;;;;23.95;12.25;;;;;;;18.68;70.83;93203.75;5057059;28;20108;-79
2022/10/12 10:33:37;;;;;;;22.85;10.25;;;;;;;18.83;71.58;93207.03;5058186;28;20029;-78
2022/10/12 10:36:11;;;;;;;24.95;10.32;;;;;;;18.84;70.73;93212.00;5058976;28;20048;-79
2022/10/12 10:38:52;;;;;;;20.83;9.75;;;;;;;18.73;71.96;93200.16;5059859;28;20025;-79
2022/10/12 10:41:18;;;;;;;24.83;13.07;;;;;;;18.69;70.75;93201.91;5059200;28;20041;-79
2022/10/12 10:43:48;;;;;;;31.98;15.90;;;;;;;18.78;70.14;93213.28;5058354;28;20088;-79
2022/10/12 10:46:15;;;;;;;25.38;14.05;;;;;;;19.12;66.18;93219.50;5058340;28;20044;-79
2022/10/12 10:48:55;;;;;;;34.50;12.45;;;;;;;19.26;66.69;93212.06;5057725;28;20150;-79
2022/10/12 10:51:21;;;;;;;21.98;10.73;;;;;;;19.15;68.09;93208.25;5058729;28;20067;-78
2022/10/12 10:53:50;;;;;;;23.35;10.50;;;;;;;18.64;70.54;93210.81;5059082;28;20116;-79
2022/10/12 10:56:26;;;;;;;19.27;10.55;;;;;;;18.43;71.67;93207.31;5058617;28;20040;-79
2022/10/12 10:58:55;;;;;;;21.60;11.52;;;;;;;18.26;71.87;93208.91;5058816;28;20040;-79
2022/10/12 11:01:34;;;;;;;18.35;9.20;;;;;;;18.22;71.77;93209.88;5058759;28;20035;-79
2022/10/12 11:04:13;;;;;;;24.75;12.90;;;;;;;17.66;73.18;93207.88;5058007;28;20417;-79
2022/10/12 11:06:41;;;;;;;27.88;15.57;;;;;;;17.81;71.80;93200.53;5057787;28;20040;-79
2022/10/12 11:09:23;;;;;;;25.75;13.85;;;;;;;17.92;73.18;93201.78;5057820;28;20033;-78
2022/10/12 11:11:56;;;;;;;23.20;13.68;;;;;;;17.89;72.84;93199.78;5059569;28;20040;-79
2022/10/12 11:14:27;;;;;;;25.08;11.80;;;;;;;17.92;73.67;93193.09;5058308;28;20424;-79
2022/10/12 11:17:00;;;;;;;24.17;10.17;;;;;;;17.87;75.48;93191.38;5057371;28;20040;-79
2022/10/12 11:19:51;;;;;;;18.05;10.85;;;;;;;17.77;75.12;93192.47;5059003;28;20810;-79
2022/10/12 11:22:48;;;;;;;20.23;10.38;;;;;;;17.85;74.30;93188.25;5058666;28;20037;-79
2022/10/12 11:25:23;;;;;;;23.00;12.38;;;;;;;17.93;77.81;93199.94;5058191;28;20044;-79
2022/10/12 11:27:49;;;;;;;29.65;13.90;;;;;;;17.80;76.19;93193.69;5059733;28;20037;-79
2022/10/12 11:30:23;;;;;;;29.05;12.98;;;;;;;17.87;77.15;93189.50;5059426;28;20510;-80
2022/10/12 11:32:58;;;;;;;23.00;12.80;;;;;;;17.86;75.35;93189.84;5058823;28;20109;-79
2022/10/12 11:35:44;;;;;;;27.13;14.75;;;;;;;17.71;77.65;93191.06;5059194;28;20036;-79
2022/10/12 11:38:20;;;;;;;25.55;13.60;;;;;;;17.79;78.29;93186.84;5059409;28;20056;-79
2022/10/12 11:41:05;;;;;;;31.25;15.57;;;;;;;17.94;75.93;93190.91;5057400;28;20039;-79
2022/10/12 11:43:40;;;;;;;26.63;14.38;;;;;;;17.84;77.55;93182.19;5059167;28;20045;-79
2022/10/12 11:46:10;;;;;;;24.98;13.82;;;;;;;17.98;78.04;93187.31;5058881;28;20055;-80
2022/10/12 11:48:45;;;;;;;27.45;14.63;;;;;;;17.71;77.76;93180.47;5059083;28;20041;-79
2022/10/12 11:51:11;;;;;;;21.52;11.27;;;;;;;17.82;76.79;93176.44;5059331;28;20059;-80
2022/10/12 11:53:55;;;;;;;29.15;13.27;;;;;;;17.81;76.48;93184.66;5058663;28;20459;-79
2022/10/12 11:56:51;;;;;;;27.13;15.15;;;;;;;17.67;80.20;93176.88;5056924;28;20036;-79
2022/10/12 11:59:20;;;;;;;33.63;15.85;;;;;;;17.58;77.48;93174.22;5056742;28;20041;-79
2022/10/12 12:02:07;;;;;;;27.70;14.88;;;;;;;17.69;78.57;93180.00;5058377;28;20036;-79
2022/10/12 12:04:35;;;;;;;43.97;16.23;;;;;;;17.73;77.45;93178.28;5077220;28;20169;-80
2022/10/12 12:07:40;;;;;;;28.13;15.90;;;;;;;17.89;77.56;93181.25;5077022;28;20021;-79
2022/10/12 12:10:24;;;;;;;32.42;16.30;;;;;;;17.97;75.89;93177.81;5076954;28;20056;-79
2022/10/12 12:13:06;;;;;;;28.17;15.02;;;;;;;17.87;77.26;93178.13;5077416;28;20037;-79
2022/10/12 12:15:32;;;;;;;24.00;12.85;;;;;;;17.76;79.83;93182.16;5077165;28;20040;-79
2022/10/12 12:18:18;;;;;;;31.42;16.85;;;;;;;17.97;77.36;93164.56;5081901;28;20032;-79
2022/10/12 12:20:59;;;;;;;31.02;16.33;;;;;;;17.88;78.04;93169.13;5082145;28;20028;-79
2022/10/12 12:23:27;;;;;;;34.67;18.07;;;;;;;17.79;78.03;93157.72;5064692;28;20032;-80
2022/10/12 12:26:12;;;;;;;28.45;16.50;;;;;;;17.75;77.32;93164.75;5082512;28;20032;-79
2022/10/12 12:28:43;;;;;;;26.48;16.15;;;;;;;17.86;77.52;93164.13;5082457;28;20032;-79
2022/10/12 12:31:09;;;;;;;28.88;16.45;;;;;;;17.94;78.84;93159.88;5081804;28;20052;-79
2022/10/12 12:33:40;;;;;;;30.98;14.98;;;;;;;17.79;78.13;93153.19;5081413;28;20082;-79
2022/10/12 12:36:23;;;;;;;25.17;14.05;;;;;;;17.62;80.78;93156.63;5081380;28;20032;-79
2022/10/12 12:38:50;;;;;;;27.38;15.50;;;;;;;17.74;75.98;93158.66;5079395;28;20044;-79